createdAt,value
2019-06-15T00:00:29.132Z,98262.96
2019-06-15T00:02:55.860Z,98256.91
2019-06-15T00:05:22.623Z,98262.56
2019-06-15T00:07:49.371Z,98255.34
2019-06-15T00:10:19.886Z,98251.94
2019-06-15T00:12:46.607Z,98243.64
2019-06-15T00:15:13.304Z,98248.39
2019-06-15T00:17:40.054Z,98234.89
2019-06-15T00:20:06.764Z,98227.38
2019-06-15T00:22:33.673Z,98224.58
2019-06-15T00:25:00.451Z,98218.70
2019-06-15T00:27:27.156Z,98212.48
2019-06-15T00:29:54.142Z,98216.83
2019-06-15T00:32:20.901Z,98211.33
2019-06-15T00:34:47.704Z,98204.66
2019-06-15T00:37:14.430Z,98203.19
2019-06-15T00:39:41.139Z,98204.66
2019-06-15T00:42:07.877Z,98200.19
2019-06-15T00:44:34.914Z,98199.64
2019-06-15T00:47:01.651Z,98201.35
2019-06-15T00:49:28.392Z,98202.98
2019-06-15T00:51:55.146Z,98193.14
2019-06-15T00:54:22.152Z,98202.98
2019-06-15T00:56:48.902Z,98196.31
2019-06-15T00:59:15.771Z,98202.53
2019-06-15T01:01:42.502Z,98198.06
2019-06-15T01:04:09.556Z,98196.27
2019-06-15T01:06:36.267Z,98193.56
2019-06-15T01:09:04.168Z,98194.35
2019-06-15T01:11:30.948Z,98187.44
2019-06-15T01:13:57.730Z,98190.98
2019-06-15T01:16:24.477Z,98189.43
2019-06-15T01:18:51.194Z,98171.16
2019-06-15T01:21:17.942Z,98159.33
2019-06-15T01:23:44.667Z,98158.23
2019-06-15T01:26:11.400Z,98157.03
2019-06-15T01:28:38.092Z,98150.31
2019-06-15T01:31:04.846Z,98150.91
2019-06-15T01:33:31.703Z,98160.08
2019-06-15T01:35:58.408Z,98154.45
2019-06-15T01:38:25.119Z,98150.85
2019-06-15T01:40:52.006Z,98144.42
2019-06-15T01:43:18.734Z,98143.56
2019-06-15T01:45:45.437Z,98144.00
2019-06-15T01:48:12.170Z,98141.24
2019-06-15T01:50:38.899Z,98139.03
2019-06-15T01:53:05.936Z,98127.08
2019-06-15T01:55:32.664Z,98132.96
2019-06-15T01:57:59.386Z,98135.58
2019-06-15T02:00:28.356Z,98137.20
2019-06-15T02:02:55.096Z,98133.70
2019-06-15T02:05:22.164Z,98132.91
2019-06-15T02:07:48.871Z,98144.38
2019-06-15T02:10:15.864Z,98134.08
2019-06-15T02:12:42.575Z,98142.20
2019-06-15T02:15:09.294Z,98153.53
2019-06-15T02:17:36.061Z,98155.87
2019-06-15T02:20:03.369Z,98157.08
2019-06-15T02:22:30.192Z,98160.22
2019-06-15T02:24:56.933Z,98163.75
2019-06-15T02:27:24.866Z,98155.42
2019-06-15T02:29:52.086Z,98166.88
2019-06-15T02:32:18.804Z,98161.63
2019-06-15T02:34:45.550Z,98180.38
2019-06-15T02:37:12.270Z,98179.30
2019-06-15T02:39:39.373Z,98189.59
2019-06-15T02:42:06.224Z,98204.81
2019-06-15T02:44:32.943Z,98212.02
2019-06-15T02:46:59.635Z,98225.37
2019-06-15T02:49:26.344Z,98221.50
2019-06-15T02:51:56.032Z,98225.17
2019-06-15T02:54:23.064Z,98236.13
2019-06-15T02:56:49.784Z,98263.78
2019-06-15T02:59:16.521Z,98285.92
2019-06-15T03:01:43.276Z,98292.34
2019-06-15T03:04:10.015Z,98310.56
2019-06-15T03:06:36.753Z,98306.50
2019-06-15T03:09:04.906Z,98293.05
2019-06-15T03:11:31.771Z,98308.03
2019-06-15T03:13:58.487Z,98328.21
2019-06-15T03:16:25.301Z,98326.70
2019-06-15T03:18:52.020Z,98326.09
2019-06-15T03:21:18.752Z,98328.42
2019-06-15T03:23:45.483Z,98337.22
2019-06-15T03:26:12.299Z,98352.45
2019-06-15T03:28:39.159Z,98364.91
2019-06-15T03:31:05.879Z,98368.30
2019-06-15T03:33:32.556Z,98367.03
2019-06-15T03:35:59.258Z,98367.74
2019-06-15T03:38:26.014Z,98364.03
2019-06-15T03:40:59.700Z,98363.09
2019-06-15T03:43:22.490Z,98363.95
2019-06-15T03:45:49.522Z,98362.30
2019-06-15T03:48:16.299Z,98362.30
2019-06-15T03:50:43.020Z,98366.95
2019-06-15T03:53:09.728Z,98380.44
2019-06-15T03:55:36.406Z,98381.83
2019-06-15T03:58:03.324Z,98381.67
2019-06-15T04:00:47.109Z,98384.42
2019-06-15T04:03:13.954Z,98374.94
2019-06-15T04:05:41.324Z,98372.17
2019-06-15T04:08:08.086Z,98369.56
2019-06-15T04:10:34.793Z,98365.94
2019-06-15T04:13:01.552Z,98360.91
2019-06-15T04:15:28.889Z,98382.56
2019-06-15T04:17:55.665Z,98384.91
2019-06-15T04:20:22.424Z,98393.30
2019-06-15T04:22:49.177Z,98399.56
2019-06-15T04:25:15.879Z,98408.63
2019-06-15T04:27:42.586Z,98408.47
2019-06-15T04:30:09.864Z,98400.05
2019-06-15T04:32:36.684Z,98401.70
2019-06-15T04:35:07.243Z,98407.43
2019-06-15T04:37:34.057Z,98399.00
2019-06-15T04:40:00.775Z,98401.21
2019-06-15T04:42:27.500Z,98392.73
2019-06-15T04:44:54.546Z,98399.22
2019-06-15T04:47:21.388Z,98411.44
2019-06-15T04:49:48.144Z,98428.39
2019-06-15T04:52:14.880Z,98414.57
2019-06-15T04:54:41.730Z,98419.53
2019-06-15T04:57:08.462Z,98421.38
2019-06-15T04:59:35.203Z,98423.00
2019-06-15T05:02:02.027Z,98410.81
2019-06-15T05:04:28.786Z,98411.73
2019-06-15T05:06:55.464Z,98415.99
2019-06-15T05:09:22.270Z,98416.27
2019-06-15T05:11:48.958Z,98414.01
2019-06-15T05:14:15.671Z,98407.05
2019-06-15T05:16:42.651Z,98420.03
2019-06-15T05:19:09.357Z,98433.87
2019-06-15T05:21:36.073Z,98447.61
2019-06-15T05:24:02.818Z,98446.42
2019-06-15T05:26:29.549Z,98453.92
2019-06-15T05:28:56.349Z,98467.30
2019-06-15T05:31:23.088Z,98477.48
2019-06-15T05:33:49.827Z,98476.06
2019-06-15T05:36:16.533Z,98486.48
2019-06-15T05:38:43.250Z,98501.27
2019-06-15T05:41:09.914Z,98504.45
2019-06-15T05:43:36.729Z,98505.67
2019-06-15T05:46:03.452Z,98509.88
2019-06-15T05:48:31.760Z,98516.33
2019-06-15T05:50:58.809Z,98517.28
2019-06-15T05:53:25.539Z,98533.62
2019-06-15T05:55:52.583Z,98529.28
2019-06-15T05:58:19.604Z,98545.11
2019-06-15T06:00:46.339Z,98535.88
2019-06-15T06:03:13.062Z,98550.34
2019-06-15T06:05:40.130Z,98549.30
2019-06-15T06:08:07.153Z,98552.97
2019-06-15T06:10:33.887Z,98559.74
2019-06-15T06:13:00.628Z,98559.91
2019-06-15T06:15:27.602Z,98560.70
2019-06-15T06:17:57.549Z,98567.81
2019-06-15T06:20:24.235Z,98587.55
2019-06-15T06:22:50.966Z,98580.57
2019-06-15T06:25:17.683Z,98589.59
2019-06-15T06:27:44.375Z,98584.41
2019-06-15T06:30:11.263Z,98593.98
2019-06-15T06:32:39.522Z,98594.06
2019-06-15T06:35:07.142Z,98638.16
2019-06-15T06:37:34.329Z,98600.25
2019-06-15T06:40:01.058Z,98589.67
2019-06-15T06:42:27.935Z,98594.36
2019-06-15T06:44:54.679Z,98593.31
2019-06-15T06:47:21.397Z,98600.92
2019-06-15T06:49:48.243Z,98609.70
2019-06-15T06:52:14.958Z,98611.73
2019-06-15T06:54:42.036Z,98617.30
2019-06-15T06:57:09.694Z,98616.34
2019-06-15T06:59:36.408Z,98628.26
2019-06-15T07:02:03.505Z,98639.84
2019-06-15T07:04:30.382Z,98637.63
2019-06-15T07:06:57.243Z,98634.62
2019-06-15T07:09:24.008Z,98629.22
2019-06-15T07:11:51.140Z,98640.26
2019-06-15T07:14:18.199Z,98637.90
2019-06-15T07:16:44.927Z,98645.33
2019-06-15T07:19:11.637Z,98652.70
2019-06-15T07:21:38.367Z,98650.39
2019-06-15T07:24:05.366Z,98651.21
2019-06-15T07:26:32.088Z,98639.06
2019-06-15T07:28:58.825Z,98643.94
2019-06-15T07:31:28.490Z,98646.77
2019-06-15T07:33:55.320Z,98650.52
2019-06-15T07:36:22.053Z,98657.27
2019-06-15T07:38:51.006Z,98654.47
2019-06-15T07:41:17.814Z,98653.07
2019-06-15T07:43:44.887Z,98649.39
2019-06-15T07:46:11.611Z,98653.70
2019-06-15T07:48:38.640Z,98651.63
2019-06-15T07:51:05.402Z,98651.11
2019-06-15T07:53:32.121Z,98663.20
2019-06-15T07:55:59.014Z,98662.13
2019-06-15T07:58:25.717Z,98660.56
2019-06-15T08:00:52.476Z,98654.09
2019-06-15T08:03:19.216Z,98655.92
2019-06-15T08:05:46.421Z,98674.92
2019-06-15T08:08:13.436Z,98692.38
2019-06-15T08:10:41.001Z,98679.95
2019-06-15T08:13:09.095Z,98693.72
2019-06-15T08:15:35.830Z,98687.08
2019-06-15T08:18:02.688Z,98693.14
2019-06-15T08:20:32.343Z,98729.84
2019-06-15T08:22:59.078Z,98713.55
2019-06-15T08:25:25.784Z,98707.88
2019-06-15T08:27:52.545Z,98736.22
2019-06-15T08:30:26.276Z,98727.06
2019-06-15T08:32:53.021Z,98733.73
2019-06-15T08:35:19.858Z,98732.97
2019-06-15T08:37:46.576Z,98733.12
2019-06-15T08:40:13.327Z,98740.50
2019-06-15T08:42:42.873Z,98742.76
2019-06-15T08:45:10.194Z,98754.34
2019-06-15T08:47:37.040Z,98749.80
2019-06-15T08:50:04.317Z,98758.84
2019-06-15T08:52:31.016Z,98761.22
2019-06-15T08:54:57.759Z,98759.45
2019-06-15T08:57:24.480Z,98761.31
2019-06-15T08:59:51.269Z,98765.27
2019-06-15T09:02:17.933Z,98776.16
2019-06-15T09:04:44.667Z,98774.14
2019-06-15T09:07:11.377Z,98782.55
2019-06-15T09:09:38.116Z,98779.45
2019-06-15T09:12:04.805Z,98786.03
2019-06-15T09:14:31.528Z,98781.30
2019-06-15T09:16:58.235Z,98780.81
2019-06-15T09:19:24.950Z,98788.27
2019-06-15T09:21:51.625Z,98795.13
2019-06-15T09:24:18.334Z,98797.88
2019-06-15T09:26:46.393Z,98803.83
2019-06-15T09:29:13.197Z,98803.64
2019-06-15T09:31:39.899Z,98803.17
2019-06-15T09:34:18.593Z,98812.80
2019-06-15T09:36:35.937Z,98801.69
2019-06-15T09:39:03.495Z,98809.12
2019-06-15T09:41:30.263Z,98816.05
2019-06-15T09:43:57.027Z,98819.82
2019-06-15T09:46:23.756Z,98821.43
2019-06-15T09:48:50.534Z,98822.41
2019-06-15T09:51:17.370Z,98823.45
2019-06-15T09:53:46.897Z,98825.86
2019-06-15T09:56:14.098Z,98819.16
2019-06-15T09:58:40.805Z,98831.41
2019-06-15T10:01:07.520Z,98827.30
2019-06-15T10:03:34.270Z,98853.23
2019-06-15T10:06:00.951Z,98824.86
2019-06-15T10:08:27.689Z,98822.09
2019-06-15T10:10:54.433Z,98818.61
2019-06-15T10:13:21.463Z,98827.26
2019-06-15T10:15:48.288Z,98817.06
2019-06-15T10:18:20.043Z,98815.64
2019-06-15T10:20:49.196Z,98829.96
2019-06-15T10:23:15.941Z,98832.66
2019-06-15T10:25:42.675Z,98831.64
2019-06-15T10:28:09.395Z,98831.08
2019-06-15T10:30:36.112Z,98845.20
2019-06-15T10:33:02.829Z,98826.84
2019-06-15T10:35:29.530Z,98843.41
2019-06-15T10:37:56.265Z,98843.64
2019-06-15T10:40:25.859Z,98848.25
2019-06-15T10:42:52.541Z,98848.55
2019-06-15T10:45:19.231Z,98859.33
2019-06-15T10:47:45.913Z,98877.14
2019-06-15T10:50:13.807Z,98882.67
2019-06-15T10:52:40.592Z,98895.39
2019-06-15T10:55:07.446Z,98889.77
2019-06-15T10:57:34.530Z,98884.80
2019-06-15T11:00:01.318Z,98884.00
2019-06-15T11:02:28.059Z,98887.23
2019-06-15T11:04:54.783Z,98905.86
2019-06-15T11:07:21.487Z,98895.59
2019-06-15T11:09:48.212Z,98891.16
2019-06-15T11:12:14.904Z,98891.22
2019-06-15T11:14:41.601Z,98876.18
2019-06-15T11:17:08.315Z,98890.44
2019-06-15T11:19:35.039Z,98883.74
2019-06-15T11:22:01.822Z,98877.04
2019-06-15T11:24:28.572Z,98880.86
2019-06-15T11:26:55.268Z,98883.52
2019-06-15T11:29:22.282Z,98881.16
2019-06-15T11:31:49.310Z,98883.12
2019-06-15T11:34:16.106Z,98886.48
2019-06-15T11:36:42.832Z,98878.91
2019-06-15T11:39:09.550Z,98888.75
2019-06-15T11:41:36.297Z,98881.02
2019-06-15T11:44:03.051Z,98887.13
2019-06-15T11:46:29.811Z,98879.52
2019-06-15T11:48:56.516Z,98888.36
2019-06-15T11:51:23.606Z,98906.79
2019-06-15T11:53:50.315Z,98880.34
2019-06-15T11:56:17.045Z,98881.03
2019-06-15T11:58:43.739Z,98881.83
2019-06-15T12:01:10.475Z,98873.97
2019-06-15T12:03:37.201Z,98889.79
2019-06-15T12:06:03.890Z,98860.22
2019-06-15T12:08:30.590Z,98856.08
2019-06-15T12:10:57.323Z,98845.83
2019-06-15T12:13:24.034Z,98860.67
2019-06-15T12:15:51.176Z,98853.58
2019-06-15T12:18:17.913Z,98850.02
2019-06-15T12:20:44.659Z,98851.31
2019-06-15T12:23:11.472Z,98859.11
2019-06-15T12:25:38.203Z,98858.27
2019-06-15T12:28:04.911Z,98871.25
2019-06-15T12:30:46.273Z,98856.72
2019-06-15T12:33:04.442Z,98877.27
2019-06-15T12:35:31.557Z,98863.73
2019-06-15T12:37:58.252Z,98846.53
2019-06-15T12:40:25.142Z,98852.78
2019-06-15T12:42:52.256Z,98852.13
2019-06-15T12:45:19.006Z,98856.00
2019-06-15T12:47:45.816Z,98849.10
2019-06-15T12:50:12.534Z,98854.61
2019-06-15T12:52:39.539Z,98845.03
2019-06-15T12:55:06.246Z,98842.42
2019-06-15T12:57:32.941Z,98857.08
2019-06-15T12:59:59.634Z,98853.48
2019-06-15T13:02:26.363Z,98853.11
2019-06-15T13:04:53.096Z,98845.73
2019-06-15T13:07:19.834Z,98857.34
2019-06-15T13:09:46.626Z,98857.59
2019-06-15T13:12:13.340Z,98848.44
2019-06-15T13:14:40.085Z,98845.47
2019-06-15T13:17:06.805Z,98841.84
2019-06-15T13:19:33.695Z,98850.55
2019-06-15T13:22:00.550Z,98862.88
2019-06-15T13:24:27.326Z,98844.84
2019-06-15T13:26:57.193Z,98846.12
2019-06-15T13:29:23.917Z,98859.08
2019-06-15T13:31:50.677Z,98854.20
2019-06-15T13:34:17.396Z,98855.02
2019-06-15T13:36:44.144Z,98853.58
2019-06-15T13:39:10.878Z,98857.45
2019-06-15T13:41:37.602Z,98845.52
2019-06-15T13:44:04.454Z,98853.52
2019-06-15T13:46:31.181Z,98855.97
2019-06-15T13:48:57.878Z,98855.00
2019-06-15T13:51:24.622Z,98851.22
2019-06-15T13:53:51.338Z,98840.22
2019-06-15T13:56:18.044Z,98845.67
2019-06-15T13:58:44.838Z,98851.59
2019-06-15T14:01:11.721Z,98867.81
2019-06-15T14:03:38.532Z,98859.88
2019-06-15T14:06:05.833Z,98851.75
2019-06-15T14:08:32.857Z,98852.19
2019-06-15T14:10:59.685Z,98865.17
2019-06-15T14:13:26.423Z,98854.74
2019-06-15T14:15:53.161Z,98849.19
2019-06-15T14:18:19.885Z,98856.77
2019-06-15T14:20:47.021Z,98847.05
2019-06-15T14:23:13.741Z,98854.61
2019-06-15T14:25:40.470Z,98848.17
2019-06-15T14:28:07.193Z,98851.94
2019-06-15T14:30:34.174Z,98853.58
2019-06-15T14:33:03.272Z,98855.19
2019-06-15T14:35:29.962Z,98851.91
2019-06-15T14:37:56.974Z,98856.59
2019-06-15T14:40:23.673Z,98855.42
2019-06-15T14:42:50.514Z,98837.28
2019-06-15T14:45:17.537Z,98851.74
2019-06-15T14:47:44.579Z,98839.41
2019-06-15T14:50:11.285Z,98836.93
2019-06-15T14:52:38.025Z,98850.78
2019-06-15T14:55:07.034Z,98838.86
2019-06-15T14:57:36.064Z,98838.17
2019-06-15T15:00:05.837Z,98837.50
2019-06-15T15:02:31.522Z,98836.93
2019-06-15T15:04:58.277Z,98844.10
2019-06-15T15:07:26.295Z,98841.19
2019-06-15T15:09:53.369Z,98845.83
2019-06-15T15:12:20.635Z,98846.23
2019-06-15T15:14:47.641Z,98846.66
2019-06-15T15:17:17.104Z,98838.08
2019-06-15T15:19:43.039Z,98842.36
2019-06-15T15:22:09.775Z,98842.70
2019-06-15T15:24:36.475Z,98837.78
2019-06-15T15:27:14.988Z,98837.96
2019-06-15T15:29:49.072Z,98844.16
2019-06-15T15:32:25.085Z,98840.48
2019-06-15T15:34:44.407Z,98837.97
2019-06-15T15:37:11.163Z,98832.31
2019-06-15T15:39:38.186Z,98825.78
2019-06-15T15:42:06.577Z,98824.14
2019-06-15T15:44:35.987Z,98823.79
2019-06-15T15:47:02.571Z,98818.30
2019-06-15T15:49:29.266Z,98817.59
2019-06-15T15:51:56.714Z,98812.50
2019-06-15T15:54:23.536Z,98802.55
2019-06-15T15:56:50.207Z,98809.78
2019-06-15T15:59:16.907Z,98814.25
2019-06-15T16:01:45.980Z,98806.81
2019-06-15T16:04:12.232Z,98805.73
2019-06-15T16:06:38.974Z,98810.30
2019-06-15T16:09:06.308Z,98801.89
2019-06-15T16:11:32.957Z,98807.66
2019-06-15T16:13:59.755Z,98813.13
2019-06-15T16:16:26.832Z,98818.44
2019-06-15T16:18:56.001Z,98811.58
2019-06-15T16:21:22.232Z,98806.80
2019-06-15T16:23:49.004Z,98799.89
2019-06-15T16:26:16.992Z,98806.69
2019-06-15T16:28:45.995Z,98804.59
2019-06-15T16:31:14.121Z,98805.69
2019-06-15T16:33:41.505Z,98804.52
2019-06-15T16:36:08.216Z,98792.05
2019-06-15T16:38:36.559Z,98788.38
2019-06-15T16:41:03.428Z,98791.04
2019-06-15T16:43:30.440Z,98792.37
2019-06-15T16:45:57.208Z,98802.25
2019-06-15T16:48:26.109Z,98794.19
2019-06-15T16:50:53.078Z,98795.06
2019-06-15T16:53:19.788Z,98795.72
2019-06-15T16:55:46.935Z,98801.11
2019-06-15T16:58:15.984Z,98807.69
2019-06-15T17:00:42.391Z,98808.69
2019-06-15T17:03:21.054Z,98817.23
2019-06-15T17:05:38.044Z,98809.30
2019-06-15T17:08:07.030Z,98816.83
2019-06-15T17:10:39.648Z,98821.08
2019-06-15T17:13:06.750Z,98822.27
2019-06-15T17:15:33.689Z,98826.48
2019-06-15T17:18:00.391Z,98834.75
2019-06-15T17:20:31.449Z,98827.43
2019-06-15T17:22:58.632Z,98832.42
2019-06-15T17:25:27.002Z,98829.73
2019-06-15T17:27:56.183Z,98824.77
2019-06-15T17:30:22.583Z,98830.56
2019-06-15T17:32:49.345Z,98822.44
2019-06-15T17:35:16.933Z,98819.24
2019-06-15T17:37:43.894Z,98803.28
2019-06-15T17:40:10.596Z,98802.95
2019-06-15T17:42:38.534Z,98798.84
2019-06-15T17:45:06.691Z,98802.36
2019-06-15T17:47:33.752Z,98810.83
2019-06-15T17:50:00.469Z,98811.44
2019-06-15T17:52:27.206Z,98807.53
2019-06-15T17:54:56.092Z,98806.14
2019-06-15T17:57:22.667Z,98816.33
2019-06-15T17:59:49.402Z,98817.37
2019-06-15T18:02:17.127Z,98810.08
2019-06-15T18:04:44.083Z,98816.23
2019-06-15T18:07:20.405Z,98819.77
2019-06-15T18:09:47.115Z,98817.58
2019-06-15T18:12:16.866Z,98813.48
2019-06-15T18:14:46.228Z,98821.57
2019-06-15T18:17:12.235Z,98819.55
2019-06-15T18:19:38.983Z,98814.95
2019-06-15T18:22:20.372Z,98818.52
2019-06-15T18:24:51.277Z,98820.28
2019-06-15T18:27:21.919Z,98818.00
2019-06-15T18:29:48.847Z,98834.16
2019-06-15T18:32:17.118Z,98811.19
2019-06-15T18:34:46.318Z,98812.64
2019-06-15T18:37:12.742Z,98816.88
2019-06-15T18:39:39.781Z,98816.98
2019-06-15T18:42:07.744Z,98809.64
2019-06-15T18:44:36.641Z,98824.23
2019-06-15T18:47:03.700Z,98813.06
2019-06-15T18:49:31.932Z,98820.64
2019-06-15T18:51:59.023Z,98826.47
2019-06-15T18:54:26.868Z,98827.59
2019-06-15T18:56:53.756Z,98825.77
2019-06-15T18:59:20.557Z,98838.18
2019-06-15T19:01:47.395Z,98829.00
2019-06-15T19:04:30.103Z,98831.23
2019-06-15T19:06:46.736Z,98833.66
2019-06-15T19:09:17.437Z,98833.80
2019-06-15T19:11:49.776Z,98830.91
2019-06-15T19:14:16.727Z,98829.33
2019-06-15T19:16:43.448Z,98828.54
2019-06-15T19:19:10.159Z,98822.43
2019-06-15T19:21:36.893Z,98827.28
2019-06-15T19:24:07.285Z,98829.39
2019-06-15T19:26:37.576Z,98841.69
2019-06-15T19:29:06.552Z,98832.95
2019-06-15T19:31:36.592Z,98829.83
2019-06-15T19:34:02.780Z,98843.23
2019-06-15T19:36:43.760Z,98837.43
2019-06-15T19:39:10.486Z,98842.94
2019-06-15T19:41:38.100Z,98839.36
2019-06-15T19:44:10.187Z,98844.36
2019-06-15T19:46:37.113Z,98858.41
2019-06-15T19:49:06.202Z,98854.39
2019-06-15T19:51:32.578Z,98853.05
2019-06-15T19:53:59.315Z,98852.81
2019-06-15T19:56:26.154Z,98846.56
2019-06-15T19:58:52.879Z,98850.08
2019-06-15T20:01:19.590Z,98854.23
2019-06-15T20:03:46.585Z,98860.97
2019-06-15T20:06:16.804Z,98870.30
2019-06-15T20:08:42.767Z,98883.78
2019-06-15T20:11:09.500Z,98889.17
2019-06-15T20:13:37.278Z,98892.91
2019-06-15T20:16:05.281Z,98898.66
2019-06-15T20:18:32.850Z,98899.47
2019-06-15T20:20:59.551Z,98904.10
2019-06-15T20:23:28.895Z,98902.80
2019-06-15T20:25:55.909Z,98925.53
2019-06-15T20:28:23.153Z,98905.80
2019-06-15T20:30:49.885Z,98905.59
2019-06-15T20:33:16.924Z,98905.59
2019-06-15T20:35:46.899Z,98905.36
2019-06-15T20:38:16.075Z,98905.83
2019-06-15T20:40:43.789Z,98911.47
2019-06-15T20:43:10.716Z,98927.66
2019-06-15T20:45:37.976Z,98909.50
2019-06-15T20:48:06.846Z,98918.13
2019-06-15T20:50:36.076Z,98915.22
2019-06-15T20:53:06.083Z,98911.55
2019-06-15T20:55:32.591Z,98924.31
2019-06-15T20:58:01.163Z,98928.83
2019-06-15T21:00:27.883Z,98922.00
2019-06-15T21:03:06.766Z,98924.70
2019-06-15T21:05:41.128Z,98930.99
2019-06-15T21:08:06.851Z,98928.63
2019-06-15T21:10:33.942Z,98934.34
2019-06-15T21:13:13.589Z,98937.22
2019-06-15T21:15:44.229Z,98937.56
2019-06-15T21:18:11.053Z,98939.22
2019-06-15T21:20:43.453Z,98939.42
2019-06-15T21:23:10.165Z,98959.25
2019-06-15T21:25:36.985Z,98970.67
2019-06-15T21:28:06.513Z,98992.30
2019-06-15T21:30:32.660Z,98999.57
2019-06-15T21:32:59.356Z,99008.78
2019-06-15T21:35:26.769Z,99014.16
2019-06-15T21:37:57.230Z,99018.98
2019-06-15T21:40:28.198Z,99021.45
2019-06-15T21:42:56.249Z,99019.66
2019-06-15T21:45:23.271Z,99023.70
2019-06-15T21:47:50.004Z,99021.79
2019-06-15T21:50:16.726Z,99028.96
2019-06-15T21:52:45.820Z,99021.67
2019-06-15T21:55:12.141Z,99029.24
2019-06-15T21:57:38.903Z,99025.37
2019-06-15T22:00:07.651Z,99027.88
2019-06-15T22:02:36.339Z,99026.42
2019-06-15T22:05:03.418Z,99029.77
2019-06-15T22:07:30.123Z,99026.99
2019-06-15T22:09:56.831Z,99028.88
2019-06-15T22:15:06.750Z,99031.13
2019-06-15T22:17:33.132Z,99031.73
2019-06-15T22:20:00.187Z,99038.31
2019-06-15T22:22:28.100Z,99036.45
2019-06-15T22:24:56.051Z,99042.81
2019-06-15T22:27:22.799Z,99043.73
2019-06-15T22:29:49.506Z,99051.48
2019-06-15T22:32:16.630Z,99048.24
2019-06-15T22:34:43.564Z,99050.31
2019-06-15T22:37:10.260Z,99051.23
2019-06-15T22:39:37.264Z,99048.03
2019-06-15T22:42:06.692Z,99055.36
2019-06-15T22:44:32.695Z,99059.39
2019-06-15T22:46:59.400Z,99058.92
2019-06-15T22:49:26.140Z,99064.76
2019-06-15T22:51:52.948Z,99064.05
2019-06-15T22:54:19.652Z,99068.79
2019-06-15T22:56:46.848Z,99070.69
2019-06-15T22:59:14.005Z,99074.25
2019-06-15T23:01:40.735Z,99073.80
2019-06-15T23:04:12.762Z,99077.30
2019-06-15T23:06:42.937Z,99085.15
2019-06-15T23:09:08.094Z,99077.81
2019-06-15T23:11:35.955Z,99080.84
2019-06-15T23:14:02.830Z,99083.93
2019-06-15T23:16:29.566Z,99087.78
2019-06-15T23:18:57.120Z,99086.58
2019-06-15T23:21:26.582Z,99086.95
2019-06-15T23:23:52.701Z,99098.16
2019-06-15T23:26:19.429Z,99096.91
2019-06-15T23:28:46.728Z,99099.47
2019-06-15T23:31:13.687Z,99102.80
2019-06-15T23:33:40.401Z,99103.47
2019-06-15T23:36:12.418Z,99116.73
2019-06-15T23:38:39.655Z,99117.35
2019-06-15T23:41:06.960Z,99127.82
2019-06-15T23:43:36.081Z,99126.88
2019-06-15T23:46:02.442Z,99124.36
2019-06-15T23:48:29.141Z,99126.73
2019-06-15T23:50:56.949Z,99128.06
2019-06-15T23:53:25.927Z,99129.90
2019-06-15T23:55:52.526Z,99126.42
2019-06-15T23:58:19.269Z,99126.20
